Time;durP1;ratioP1;P1;durP2;ratioP2;P2;SDS_P1;SDS_P2;PMS_P1;PMS_P2;Temp;Humidity;BMP_temperature;BMP_pressure;BME280_temperature;BME280_humidity;BME280_pressure;Samples;Min_cycle;Max_cycle;Signal;HPM_P1;HPM_P2
2021/12/24 00:02:14;;;;;;;6.00;5.40;;;10.10;99.90;;;;;;4988153;28;20631;-50
2021/12/24 00:04:39;;;;;;;9.03;5.30;;;10.10;99.90;;;;;;4984015;28;20216;-51
2021/12/24 00:07:05;;;;;;;7.23;5.00;;;10.10;99.90;;;;;;4987068;28;20361;-50
2021/12/24 00:09:33;;;;;;;8.40;5.10;;;10.10;99.90;;;;;;4987130;28;20470;-51
2021/12/24 00:12:03;;;;;;;6.70;5.27;;;10.10;99.90;;;;;;4987066;28;20321;-52
2021/12/24 00:14:30;;;;;;;8.17;5.70;;;10.10;99.90;;;;;;4986038;28;20818;-52
2021/12/24 00:17:01;;;;;;;7.57;4.67;;;10.10;99.90;;;;;;4985484;28;20436;-49
2021/12/24 00:23:23;;;;;;;8.13;5.17;;;10.10;99.90;;;;;;4985102;28;20543;-52
2021/12/24 00:35:40;;;;;;;7.87;4.50;;;10.30;99.90;;;;;;4982750;28;20443;-52
2021/12/24 00:38:10;;;;;;;10.40;4.70;;;10.30;99.90;;;;;;4980972;28;21072;-51
2021/12/24 00:40:43;;;;;;;5.70;4.30;;;10.30;99.90;;;;;;4982990;28;20429;-50
2021/12/24 00:43:10;;;;;;;6.83;4.60;;;10.20;99.90;;;;;;4981283;28;20583;-50
2021/12/24 00:45:38;;;;;;;6.63;4.97;;;10.30;99.90;;;;;;4981289;28;20464;-51
2021/12/24 00:48:05;;;;;;;7.97;5.03;;;10.30;99.90;;;;;;4981949;28;20812;-48
2021/12/24 00:50:46;;;;;;;10.57;4.83;;;10.20;99.90;;;;;;4982331;28;20961;-49
2021/12/24 00:56:11;;;;;;;6.83;4.20;;;10.10;99.90;;;;;;4954164;28;20445;-50
2021/12/24 00:58:38;;;;;;;7.50;4.60;;;10.10;99.90;;;;;;4983026;28;21014;-49
2021/12/24 01:01:05;;;;;;;6.63;4.93;;;10.10;99.90;;;;;;4965531;28;20966;-51
2021/12/24 01:03:31;;;;;;;9.20;4.40;;;10.20;99.90;;;;;;4983167;28;20860;-48
2021/12/24 01:05:57;;;;;;;10.20;4.50;;;10.10;99.90;;;;;;4981439;28;20556;-51
2021/12/24 01:08:23;;;;;;;8.20;5.10;;;10.10;99.90;;;;;;4980349;28;20186;-50
2021/12/24 01:10:53;;;;;;;7.20;5.60;;;10.10;99.90;;;;;;4981322;28;20194;-47
2021/12/24 01:13:19;;;;;;;13.23;5.50;;;10.10;99.90;;;;;;4982119;28;20441;-49
2021/12/24 01:15:59;;;;;;;8.23;4.97;;;10.00;99.90;;;;;;4976870;28;20875;-50
2021/12/24 01:23:55;;;;;;;8.90;5.07;;;9.90;99.90;;;;;;4965896;28;22366;-48
2021/12/24 01:42:51;;;;;;;8.60;5.77;;;9.90;99.90;;;;;;4984444;28;20951;-49
2021/12/24 01:45:21;;;;;;;8.10;6.00;;;9.90;99.90;;;;;;4981242;28;20459;-51
2021/12/24 01:47:49;;;;;;;7.17;5.83;;;9.90;99.90;;;;;;4980510;28;20824;-48
2021/12/24 01:50:15;;;;;;;5.93;4.90;;;9.90;99.90;;;;;;4983135;28;20440;-47
2021/12/24 01:52:41;;;;;;;7.77;6.30;;;9.90;99.90;;;;;;4983804;28;20490;-47
2021/12/24 01:55:09;;;;;;;7.20;5.70;;;9.90;99.90;;;;;;4981162;28;20470;-48
2021/12/24 01:57:36;;;;;;;6.20;4.60;;;9.90;99.90;;;;;;4977726;28;20299;-48
2021/12/24 02:00:05;;;;;;;7.73;5.20;;;9.90;99.90;;;;;;4979036;28;20862;-50
2021/12/24 02:02:31;;;;;;;8.73;5.70;;;9.90;99.90;;;;;;4980452;28;20453;-50
2021/12/24 02:04:57;;;;;;;6.43;5.03;;;9.90;99.90;;;;;;4977676;28;20467;-49
2021/12/24 02:07:22;;;;;;;7.67;5.63;;;9.90;99.90;;;;;;4984378;28;20193;-51
2021/12/24 02:09:48;;;;;;;6.00;4.87;;;10.00;99.90;;;;;;4982491;28;20363;-51
2021/12/24 02:12:15;;;;;;;9.13;5.67;;;10.00;99.90;;;;;;4980846;28;20214;-48
2021/12/24 02:14:43;;;;;;;6.63;4.60;;;10.00;99.90;;;;;;4980742;28;20677;-50
2021/12/24 02:29:06;;;;;;;7.67;4.83;;;10.00;99.90;;;;;;4978039;28;20703;-50
2021/12/24 02:31:00;;;;;;;10.70;5.60;;;10.00;99.90;;;;;;4975616;28;20457;-52
2021/12/24 02:33:26;;;;;;;6.80;4.60;;;10.00;99.90;;;;;;4979430;28;20437;-49
2021/12/24 02:35:52;;;;;;;6.17;4.63;;;10.10;99.90;;;;;;4982093;28;20202;-51
2021/12/24 02:38:18;;;;;;;8.33;5.77;;;10.00;99.90;;;;;;4978098;28;20706;-53
2021/12/24 02:40:44;;;;;;;10.63;5.43;;;10.00;99.90;;;;;;4981570;28;20441;-53
2021/12/24 02:43:14;;;;;;;7.03;5.57;;;10.00;99.90;;;;;;4980502;28;20197;-48
2021/12/24 02:45:42;;;;;;;6.10;4.43;;;10.00;99.90;;;;;;4981889;28;20205;-49
2021/12/24 02:48:24;;;;;;;7.70;5.97;;;9.90;99.90;;;;;;4980550;28;21026;-51
2021/12/24 02:56:25;;;;;;;5.90;4.67;;;9.90;99.90;;;;;;4980709;28;20471;-49
2021/12/24 02:58:51;;;;;;;9.20;5.77;;;9.90;99.90;;;;;;4981069;28;20571;-49
2021/12/24 03:01:21;;;;;;;5.97;4.80;;;9.90;99.90;;;;;;4984059;28;21025;-50
2021/12/24 03:03:48;;;;;;;6.23;5.50;;;9.80;99.90;;;;;;4979043;28;20473;-51
2021/12/24 03:06:15;;;;;;;6.83;5.27;;;9.90;99.90;;;;;;4980924;28;20948;-51
2021/12/24 03:08:41;;;;;;;7.50;5.73;;;9.90;99.90;;;;;;4980617;28;20437;-51
2021/12/24 03:11:06;;;;;;;7.80;5.30;;;9.80;99.90;;;;;;4980641;28;20440;-50
2021/12/24 03:13:32;;;;;;;8.23;5.30;;;9.80;99.90;;;;;;4980048;28;20324;-48
2021/12/24 03:15:59;;;;;;;12.80;6.43;;;9.80;99.90;;;;;;4980139;28;20202;-50
2021/12/24 03:18:28;;;;;;;17.33;7.70;;;9.80;99.90;;;;;;4980091;28;20469;-52
2021/12/24 03:21:06;;;;;;;12.60;6.73;;;9.80;99.90;;;;;;4966134;28;20931;-49
2021/12/24 03:26:06;;;;;;;16.07;6.90;;;9.80;99.90;;;;;;4981138;28;20486;-52
2021/12/24 03:28:32;;;;;;;7.07;5.77;;;9.70;99.90;;;;;;4979621;28;20965;-51
2021/12/24 03:30:59;;;;;;;10.63;7.10;;;9.80;99.90;;;;;;4980474;28;20439;-49
2021/12/24 03:33:24;;;;;;;11.37;6.43;;;9.80;99.90;;;;;;4978832;28;20182;-47
2021/12/24 03:35:50;;;;;;;18.30;8.07;;;9.90;99.90;;;;;;4979960;28;20824;-47
2021/12/24 03:38:16;;;;;;;7.90;5.43;;;9.80;99.90;;;;;;4979274;28;20190;-52
2021/12/24 03:40:41;;;;;;;7.43;5.80;;;9.80;99.90;;;;;;4981824;28;20196;-47
2021/12/24 03:43:07;;;;;;;6.97;4.50;;;9.90;99.90;;;;;;4982978;28;20202;-50
2021/12/24 03:45:55;;;;;;;8.30;6.57;;;9.80;99.90;;;;;;4976954;28;20220;-47
2021/12/24 03:48:37;;;;;;;10.90;5.80;;;9.80;99.90;;;;;;4981115;28;20201;-52
2021/12/24 03:51:25;;;;;;;9.73;5.57;;;9.80;99.90;;;;;;4982152;28;20452;-49
2021/12/24 03:56:35;;;;;;;8.17;4.70;;;9.70;99.90;;;;;;4981905;28;20436;-49
2021/12/24 03:59:01;;;;;;;9.70;5.03;;;9.70;99.90;;;;;;4980211;28;20473;-47
2021/12/24 04:01:27;;;;;;;7.70;5.57;;;9.70;99.90;;;;;;4980593;28;20426;-52
2021/12/24 04:03:52;;;;;;;6.20;4.40;;;9.70;99.90;;;;;;4978943;28;20749;-48
2021/12/24 04:06:18;;;;;;;6.43;4.90;;;9.60;99.90;;;;;;4979137;28;20214;-52
2021/12/24 04:08:44;;;;;;;7.47;5.10;;;9.60;99.90;;;;;;4979755;28;20787;-48
2021/12/24 04:11:10;;;;;;;8.90;5.33;;;9.60;99.90;;;;;;4978322;28;20289;-47
2021/12/24 04:13:36;;;;;;;9.70;5.53;;;9.60;99.90;;;;;;4983639;28;20518;-49
2021/12/24 04:16:03;;;;;;;7.53;5.20;;;9.50;99.90;;;;;;4979937;28;20259;-52
2021/12/24 04:26:28;;;;;;;11.00;5.73;;;9.60;99.90;;;;;;4982035;28;20460;-50
2021/12/24 04:28:54;;;;;;;6.37;4.90;;;9.60;99.90;;;;;;4984218;28;20516;-47
2021/12/24 04:31:25;;;;;;;6.27;5.37;;;9.60;99.90;;;;;;4983244;28;20860;-51
2021/12/24 04:33:51;;;;;;;6.47;5.33;;;9.60;99.90;;;;;;4983733;28;20271;-51
2021/12/24 04:52:41;;;;;;;6.97;5.00;;;9.60;99.90;;;;;;4979100;28;20550;-49
2021/12/24 05:03:26;;;;;;;6.40;5.10;;;9.60;99.90;;;;;;4981110;28;20455;-48
2021/12/24 05:06:04;;;;;;;6.40;5.30;;;9.60;99.90;;;;;;4979799;28;20452;-50
2021/12/24 05:08:39;;;;;;;6.80;4.67;;;9.60;99.90;;;;;;4983258;28;20475;-49
2021/12/24 05:11:10;;;;;;;5.70;4.60;;;9.60;99.90;;;;;;4981237;28;20440;-49
2021/12/24 05:13:37;;;;;;;6.30;4.83;;;9.50;99.90;;;;;;4983229;28;20447;-48
2021/12/24 05:16:13;;;;;;;6.57;4.20;;;9.60;99.90;;;;;;4979571;28;20471;-51
2021/12/24 05:23:57;;;;;;;6.17;5.00;;;9.60;99.90;;;;;;4983456;28;20483;-50
2021/12/24 05:26:23;;;;;;;5.93;5.17;;;9.60;99.90;;;;;;4981131;28;20476;-51
2021/12/24 05:28:49;;;;;;;6.50;4.67;;;9.70;99.90;;;;;;4982004;28;20276;-50
2021/12/24 05:31:14;;;;;;;5.70;4.50;;;9.70;99.90;;;;;;4978696;28;20239;-47
2021/12/24 05:33:40;;;;;;;6.40;5.00;;;9.70;99.90;;;;;;4985087;28;20628;-48
2021/12/24 05:36:06;;;;;;;6.80;5.57;;;9.70;99.90;;;;;;4982049;28;20212;-50
2021/12/24 05:38:32;;;;;;;7.43;4.63;;;9.70;99.90;;;;;;4981442;28;20216;-49
2021/12/24 05:40:58;;;;;;;7.83;4.87;;;9.70;99.90;;;;;;4981480;28;20662;-45
2021/12/24 05:43:23;;;;;;;6.37;5.03;;;9.70;99.90;;;;;;4982452;28;20186;-52
2021/12/24 05:45:49;;;;;;;6.27;5.60;;;9.70;99.90;;;;;;4985804;28;20205;-48
2021/12/24 05:48:15;;;;;;;7.60;5.23;;;9.70;99.90;;;;;;4980503;28;20208;-48
2021/12/24 05:50:41;;;;;;;7.17;5.33;;;9.70;99.90;;;;;;4983690;28;20185;-53
2021/12/24 05:53:06;;;;;;;6.60;4.70;;;9.70;99.90;;;;;;4982112;28;20830;-50
2021/12/24 05:55:32;;;;;;;5.90;5.10;;;9.70;99.90;;;;;;4980879;28;20217;-50
2021/12/24 05:57:57;;;;;;;7.60;5.30;;;9.70;99.90;;;;;;4982315;28;20699;-52
2021/12/24 06:00:23;;;;;;;5.00;4.50;;;9.70;99.90;;;;;;4979542;28;20240;-49
2021/12/24 06:02:49;;;;;;;5.77;4.57;;;9.80;99.90;;;;;;4981953;28;20193;-48
2021/12/24 06:05:15;;;;;;;8.07;5.37;;;9.80;99.90;;;;;;4980805;28;20301;-49
2021/12/24 06:07:41;;;;;;;6.77;5.13;;;9.70;99.90;;;;;;4980910;28;20194;-49
2021/12/24 06:10:07;;;;;;;6.23;4.33;;;9.70;99.90;;;;;;4981845;28;20448;-48
2021/12/24 06:12:33;;;;;;;6.90;4.93;;;9.70;99.90;;;;;;4980276;28;20234;-50
2021/12/24 06:15:04;;;;;;;6.23;4.70;;;9.70;99.90;;;;;;4980569;28;20771;-46
2021/12/24 06:17:30;;;;;;;6.97;4.93;;;9.70;99.90;;;;;;4979914;28;20456;-48
2021/12/24 06:19:56;;;;;;;8.13;5.30;;;9.70;99.90;;;;;;4979993;28;20552;-48
2021/12/24 06:22:21;;;;;;;6.80;5.00;;;9.70;99.90;;;;;;4980446;28;21365;-48
2021/12/24 06:24:47;;;;;;;5.83;4.40;;;9.70;99.90;;;;;;4984268;28;20714;-50
2021/12/24 06:27:12;;;;;;;7.90;4.43;;;9.70;99.90;;;;;;4981197;28;20221;-47
2021/12/24 06:29:38;;;;;;;5.40;3.90;;;9.80;99.90;;;;;;4981027;28;20200;-48
2021/12/24 06:32:04;;;;;;;8.40;4.50;;;9.80;99.90;;;;;;4982858;28;20222;-48
2021/12/24 06:34:31;;;;;;;8.57;4.17;;;9.70;99.90;;;;;;4981033;28;20220;-47
2021/12/24 06:36:58;;;;;;;5.90;4.73;;;9.80;99.90;;;;;;4962464;28;20444;-50
2021/12/24 06:39:25;;;;;;;4.90;4.40;;;9.80;99.90;;;;;;4980465;28;20429;-52
2021/12/24 06:41:50;;;;;;;7.23;4.37;;;9.90;99.90;;;;;;4981258;28;20457;-50
2021/12/24 06:44:16;;;;;;;7.67;4.70;;;9.90;99.90;;;;;;4978754;28;20476;-51
2021/12/24 06:46:43;;;;;;;6.20;5.27;;;9.90;99.90;;;;;;4981993;28;20196;-47
2021/12/24 06:49:10;;;;;;;5.90;4.60;;;9.90;99.90;;;;;;4980867;28;20198;-48
2021/12/24 06:51:36;;;;;;;5.97;5.03;;;9.90;99.90;;;;;;4980523;28;20464;-52
2021/12/24 06:54:02;;;;;;;6.20;4.33;;;9.90;99.90;;;;;;4978484;28;20443;-47
2021/12/24 06:56:27;;;;;;;6.40;4.63;;;9.90;99.90;;;;;;4979983;28;20269;-50
2021/12/24 06:58:53;;;;;;;4.93;4.37;;;9.90;99.90;;;;;;4981385;28;20472;-48
2021/12/24 07:01:19;;;;;;;5.43;4.77;;;10.00;99.90;;;;;;4980687;28;20198;-50
2021/12/24 07:03:44;;;;;;;5.47;4.30;;;10.00;99.90;;;;;;4980110;28;20273;-54
2021/12/24 07:06:10;;;;;;;9.50;4.43;;;9.90;99.90;;;;;;4984283;28;20232;-49
2021/12/24 07:08:36;;;;;;;8.83;4.83;;;9.90;99.90;;;;;;4979622;28;20194;-50
2021/12/24 07:11:03;;;;;;;7.50;4.63;;;9.80;99.90;;;;;;4981170;28;20196;-49
2021/12/24 07:13:28;;;;;;;4.70;4.30;;;9.90;99.90;;;;;;4979730;28;20224;-49
2021/12/24 07:15:54;;;;;;;7.37;4.97;;;9.90;99.90;;;;;;4979443;28;20987;-49
2021/12/24 07:18:20;;;;;;;6.20;4.97;;;9.90;99.90;;;;;;4978639;28;20666;-50
2021/12/24 07:20:46;;;;;;;6.77;4.30;;;9.90;99.90;;;;;;4963289;28;20320;-50
2021/12/24 07:23:11;;;;;;;5.60;4.50;;;9.90;99.90;;;;;;4979723;28;20225;-49
2021/12/24 07:25:37;;;;;;;6.07;4.37;;;9.90;99.90;;;;;;4977423;28;20248;-50
2021/12/24 07:28:03;;;;;;;6.40;5.10;;;10.00;99.90;;;;;;4980012;28;20202;-47
2021/12/24 07:30:29;;;;;;;5.50;4.63;;;10.00;99.90;;;;;;4981193;28;20186;-47
2021/12/24 07:32:55;;;;;;;5.53;4.73;;;10.00;99.90;;;;;;4979056;28;20468;-46
2021/12/24 07:35:21;;;;;;;6.57;5.40;;;10.00;99.90;;;;;;4977592;28;20667;-46
2021/12/24 07:37:47;;;;;;;7.40;4.80;;;10.00;99.90;;;;;;4979526;28;20494;-46
2021/12/24 07:40:15;;;;;;;5.80;4.30;;;10.00;99.90;;;;;;4981848;28;20189;-49
2021/12/24 07:42:42;;;;;;;6.63;5.07;;;10.00;99.90;;;;;;4980622;28;20434;-49
2021/12/24 07:45:09;;;;;;;6.47;4.43;;;10.00;99.90;;;;;;4977372;28;20901;-49
2021/12/24 07:47:40;;;;;;;5.10;4.50;;;10.00;99.90;;;;;;4979556;28;20457;-48
2021/12/24 07:50:18;;;;;;;6.33;4.37;;;10.00;99.90;;;;;;4975789;28;20516;-48
2021/12/24 07:52:45;;;;;;;7.23;4.40;;;10.00;99.90;;;;;;4982343;28;20507;-52
2021/12/24 07:55:11;;;;;;;7.10;4.43;;;10.00;99.90;;;;;;4974286;28;20479;-47
2021/12/24 07:57:38;;;;;;;7.20;4.53;;;9.90;99.90;;;;;;4970393;28;20882;-51
2021/12/24 08:00:07;;;;;;;5.87;5.00;;;10.00;99.90;;;;;;4960205;28;20479;-51
2021/12/24 08:02:33;;;;;;;7.00;4.40;;;10.00;99.90;;;;;;4970588;28;20479;-49
2021/12/24 08:04:58;;;;;;;5.73;4.40;;;10.00;99.90;;;;;;4981986;28;20460;-48
2021/12/24 08:07:25;;;;;;;5.93;4.60;;;10.00;99.90;;;;;;4982488;28;20194;-49
2021/12/24 08:09:52;;;;;;;5.80;4.90;;;10.00;99.90;;;;;;4949718;28;20687;-47
2021/12/24 08:12:20;;;;;;;5.83;4.43;;;10.10;99.90;;;;;;4979274;28;20552;-48
2021/12/24 08:14:46;;;;;;;8.70;4.80;;;10.00;99.90;;;;;;4978740;28;20445;-48
2021/12/24 08:17:13;;;;;;;6.73;5.90;;;10.00;99.90;;;;;;4982560;28;20440;-47
2021/12/24 08:19:39;;;;;;;5.60;4.40;;;10.00;99.90;;;;;;4974881;28;20433;-48
2021/12/24 08:22:05;;;;;;;7.47;4.97;;;10.00;99.90;;;;;;4979620;28;20806;-49
2021/12/24 08:24:31;;;;;;;5.40;4.90;;;10.00;99.90;;;;;;4970858;28;20256;-46
2021/12/24 08:26:57;;;;;;;6.60;4.73;;;10.00;99.90;;;;;;4978930;28;20455;-46
2021/12/24 08:29:23;;;;;;;7.47;5.33;;;10.00;99.90;;;;;;4978586;28;20516;-50
2021/12/24 08:31:50;;;;;;;6.03;4.97;;;9.90;99.90;;;;;;4976214;28;20498;-47
2021/12/24 08:34:18;;;;;;;7.27;5.20;;;9.90;99.90;;;;;;4975634;28;20240;-46
2021/12/24 08:36:44;;;;;;;9.47;5.07;;;9.90;99.90;;;;;;4979856;28;20471;-45
2021/12/24 08:39:10;;;;;;;5.80;4.60;;;9.90;99.90;;;;;;4980743;28;20487;-48
2021/12/24 08:41:36;;;;;;;7.67;5.30;;;9.90;99.90;;;;;;4981280;28;20445;-50
2021/12/24 08:44:02;;;;;;;7.27;5.23;;;10.00;99.90;;;;;;4980695;28;20951;-46
2021/12/24 08:46:28;;;;;;;6.63;4.93;;;10.00;99.90;;;;;;4983549;28;20209;-47
2021/12/24 08:48:54;;;;;;;5.80;4.47;;;10.00;99.90;;;;;;4981907;28;20500;-48
2021/12/24 08:51:20;;;;;;;5.70;4.60;;;10.00;99.90;;;;;;4970080;28;21726;-48
2021/12/24 08:53:45;;;;;;;5.83;4.53;;;10.00;99.90;;;;;;4968317;28;20187;-51
2021/12/24 08:56:11;;;;;;;5.43;4.53;;;9.90;99.90;;;;;;4980774;28;20237;-49
2021/12/24 08:58:37;;;;;;;6.67;4.83;;;10.00;99.90;;;;;;4978414;28;20179;-48
2021/12/24 09:01:04;;;;;;;5.83;4.80;;;10.00;99.90;;;;;;4981270;28;20649;-53
2021/12/24 09:03:30;;;;;;;7.30;5.30;;;10.00;99.90;;;;;;4980444;28;20539;-51
2021/12/24 09:05:56;;;;;;;5.63;4.73;;;10.00;99.90;;;;;;4975854;28;21052;-48
2021/12/24 09:08:21;;;;;;;6.50;4.43;;;10.00;99.90;;;;;;4979429;28;20488;-52
2021/12/24 09:10:48;;;;;;;5.03;4.50;;;10.00;99.90;;;;;;4980183;28;20209;-49
2021/12/24 09:13:13;;;;;;;6.80;5.17;;;9.90;99.90;;;;;;4977932;28;20213;-52
2021/12/24 09:15:40;;;;;;;6.13;4.90;;;9.90;99.90;;;;;;4981991;28;20450;-49
2021/12/24 09:18:07;;;;;;;8.90;5.50;;;9.90;99.90;;;;;;4969189;28;20595;-50
2021/12/24 09:20:38;;;;;;;6.50;5.10;;;9.80;99.90;;;;;;4960893;28;20862;-47
2021/12/24 09:23:05;;;;;;;9.07;4.60;;;9.80;99.90;;;;;;4983178;28;20441;-47
2021/12/24 09:25:31;;;;;;;6.33;4.30;;;9.70;99.90;;;;;;4955454;28;20564;-50
2021/12/24 09:27:58;;;;;;;5.53;4.77;;;9.60;99.90;;;;;;4977109;28;20576;-48
2021/12/24 09:30:25;;;;;;;7.77;5.80;;;9.60;99.90;;;;;;4979952;28;20498;-49
2021/12/24 09:32:51;;;;;;;13.80;5.07;;;9.50;99.90;;;;;;4982453;28;21077;-50
2021/12/24 09:35:18;;;;;;;8.77;5.60;;;9.50;99.90;;;;;;4980154;28;20446;-47
2021/12/24 09:37:43;;;;;;;7.40;5.20;;;9.50;99.90;;;;;;4980312;28;20464;-50
2021/12/24 09:40:12;;;;;;;9.03;6.67;;;9.40;99.90;;;;;;4963306;28;20437;-50
2021/12/24 09:42:38;;;;;;;7.17;5.20;;;9.40;99.90;;;;;;4979657;28;20280;-48
2021/12/24 09:45:06;;;;;;;7.97;6.30;;;9.20;99.90;;;;;;4981059;28;20472;-51
2021/12/24 09:47:33;;;;;;;6.67;5.40;;;9.20;99.90;;;;;;4980117;28;20959;-48
2021/12/24 09:49:59;;;;;;;8.53;5.73;;;9.10;99.90;;;;;;4982367;28;20441;-46
2021/12/24 09:52:25;;;;;;;8.63;6.40;;;9.10;99.90;;;;;;4965364;28;20503;-48
2021/12/24 09:54:52;;;;;;;8.50;6.63;;;9.10;99.90;;;;;;4978757;28;20224;-49
2021/12/24 09:57:18;;;;;;;8.60;7.00;;;9.00;99.90;;;;;;4981823;28;20445;-49
2021/12/24 09:59:44;;;;;;;7.23;5.87;;;9.10;99.90;;;;;;4980267;28;20819;-49
2021/12/24 10:02:16;;;;;;;10.20;6.83;;;9.10;99.90;;;;;;4980989;28;20449;-48
2021/12/24 10:04:43;;;;;;;8.07;6.17;;;9.10;99.90;;;;;;4980839;28;20545;-48
2021/12/24 10:07:11;;;;;;;8.00;6.70;;;9.10;99.90;;;;;;4980534;28;20727;-47
2021/12/24 10:09:46;;;;;;;11.10;6.20;;;9.00;99.90;;;;;;4976939;28;20450;-50
2021/12/24 10:12:14;;;;;;;10.60;7.23;;;9.00;99.90;;;;;;4967146;28;20479;-52
2021/12/24 10:14:46;;;;;;;7.63;6.43;;;8.90;99.90;;;;;;4961200;28;20465;-49
2021/12/24 10:17:34;;;;;;;10.23;6.60;;;8.90;99.90;;;;;;4962033;28;21080;-50
2021/12/24 10:20:17;;;;;;;10.73;6.10;;;8.90;99.90;;;;;;4978329;28;20452;-49
2021/12/24 10:22:51;;;;;;;12.53;8.57;;;8.90;99.90;;;;;;4978927;28;20515;-51
2021/12/24 10:25:23;;;;;;;9.57;7.53;;;8.90;99.90;;;;;;4977064;28;20487;-51
2021/12/24 10:27:48;;;;;;;8.20;6.17;;;8.90;99.90;;;;;;4980603;28;20978;-56
2021/12/24 10:30:22;;;;;;;8.77;6.33;;;9.00;99.90;;;;;;4947337;28;20449;-50
2021/12/24 10:32:49;;;;;;;8.67;6.70;;;9.00;99.90;;;;;;4979990;28;20209;-48
2021/12/24 10:35:19;;;;;;;7.27;5.80;;;9.00;99.90;;;;;;4979792;28;20456;-49
2021/12/24 10:37:44;;;;;;;9.60;5.90;;;8.90;99.90;;;;;;4980862;28;20437;-50
2021/12/24 10:40:10;;;;;;;11.97;7.07;;;8.90;99.90;;;;;;4982813;28;20441;-50
2021/12/24 10:42:40;;;;;;;15.30;6.60;;;9.00;99.90;;;;;;4978354;28;20721;-50
2021/12/24 10:45:16;;;;;;;7.67;5.93;;;9.00;99.90;;;;;;4980801;28;20206;-50
2021/12/24 10:47:43;;;;;;;9.67;7.30;;;9.10;99.90;;;;;;4980097;28;20511;-49
2021/12/24 10:55:23;;;;;;;10.37;6.90;;;8.90;99.90;;;;;;4978605;28;20458;-52
2021/12/24 10:57:54;;;;;;;9.57;6.43;;;9.00;99.90;;;;;;4962839;28;20502;-52
2021/12/24 11:00:41;;;;;;;7.60;6.23;;;9.00;99.90;;;;;;4980564;28;20442;-52
2021/12/24 11:03:09;;;;;;;8.23;6.23;;;9.00;99.90;;;;;;4978668;28;20808;-50
2021/12/24 11:05:41;;;;;;;12.00;7.90;;;8.90;99.90;;;;;;4975785;28;20473;-52
2021/12/24 11:08:10;;;;;;;9.30;6.17;;;8.80;99.90;;;;;;4979071;28;20447;-52
2021/12/24 11:10:42;;;;;;;15.03;6.80;;;8.90;99.90;;;;;;4977680;28;20445;-53
2021/12/24 11:13:14;;;;;;;7.47;5.90;;;8.90;99.90;;;;;;4977359;28;20468;-53
2021/12/24 11:15:52;;;;;;;8.50;6.50;;;8.90;99.90;;;;;;4979706;28;20503;-50
2021/12/24 11:18:25;;;;;;;10.03;6.50;;;8.90;99.90;;;;;;4978858;28;20429;-51
2021/12/24 11:21:20;;;;;;;9.63;6.20;;;9.00;99.90;;;;;;4980209;28;20792;-49
2021/12/24 11:23:47;;;;;;;9.03;6.27;;;9.00;99.90;;;;;;4977929;28;20957;-51
2021/12/24 11:26:18;;;;;;;7.10;5.37;;;9.10;99.90;;;;;;4983476;28;20486;-53
2021/12/24 11:28:45;;;;;;;6.70;5.83;;;9.00;99.90;;;;;;4978222;28;20924;-50
2021/12/24 11:31:22;;;;;;;10.17;7.43;;;9.00;99.90;;;;;;4982049;28;20452;-51
2021/12/24 11:33:51;;;;;;;7.20;6.07;;;9.10;99.90;;;;;;4977965;28;20685;-53
2021/12/24 11:36:19;;;;;;;9.33;6.10;;;9.10;99.90;;;;;;4983119;28;20445;-52
2021/12/24 11:38:51;;;;;;;9.50;6.00;;;9.10;99.90;;;;;;4980633;28;20889;-54
2021/12/24 11:41:21;;;;;;;10.40;5.63;;;9.10;99.90;;;;;;4981508;28;20484;-51
2021/12/24 11:43:49;;;;;;;6.20;5.60;;;9.20;99.90;;;;;;4980234;28;20965;-47
2021/12/24 11:46:17;;;;;;;6.93;5.17;;;9.20;99.90;;;;;;4980886;28;21005;-50
2021/12/24 11:48:44;;;;;;;12.83;7.10;;;9.20;99.90;;;;;;4982123;28;20429;-53
2021/12/24 11:51:19;;;;;;;7.50;5.87;;;9.20;99.90;;;;;;4965200;28;21014;-50
2021/12/24 11:53:46;;;;;;;5.87;5.10;;;9.30;99.90;;;;;;4978529;28;20447;-45
2021/12/24 11:56:15;;;;;;;8.37;5.97;;;9.30;99.90;;;;;;4980042;28;20505;-48
2021/12/24 11:58:51;;;;;;;6.00;5.30;;;9.30;99.90;;;;;;4978495;28;20453;-51
2021/12/24 12:01:27;;;;;;;10.87;5.70;;;9.30;99.90;;;;;;4979295;28;20432;-48
2021/12/24 12:03:55;;;;;;;8.00;5.77;;;9.40;99.90;;;;;;4981910;28;20421;-49
2021/12/24 12:06:23;;;;;;;8.53;5.47;;;9.40;99.90;;;;;;4979306;28;20463;-49
2021/12/24 12:09:00;;;;;;;6.77;5.30;;;9.40;99.90;;;;;;4979488;28;20821;-53
2021/12/24 12:11:27;;;;;;;8.27;5.03;;;9.40;99.90;;;;;;4980140;28;20442;-49
2021/12/24 12:14:01;;;;;;;7.00;5.87;;;9.40;99.90;;;;;;4978080;28;20433;-50
2021/12/24 12:16:39;;;;;;;5.43;4.90;;;9.40;99.90;;;;;;4978426;28;20506;-51
2021/12/24 12:19:13;;;;;;;6.50;5.10;;;9.30;99.90;;;;;;4980108;28;20837;-52
2021/12/24 12:21:43;;;;;;;6.90;4.37;;;9.40;99.90;;;;;;4982683;28;20434;-51
2021/12/24 12:26:49;;;;;;;5.60;5.00;;;9.40;99.90;;;;;;4977211;28;20544;-53
2021/12/24 12:29:30;;;;;;;11.90;6.60;;;9.40;99.90;;;;;;4974486;28;20444;-49
2021/12/24 12:32:17;;;;;;;4.93;4.40;;;9.40;99.90;;;;;;4977582;28;21143;-54
2021/12/24 12:34:42;;;;;;;5.40;4.80;;;9.40;99.90;;;;;;4983384;28;20486;-48
2021/12/24 12:37:30;;;;;;;6.10;4.60;;;9.40;99.90;;;;;;4981050;28;20900;-47
2021/12/24 12:40:03;;;;;;;8.53;5.50;;;9.40;99.90;;;;;;4985362;28;20654;-49
2021/12/24 12:42:56;;;;;;;5.27;4.53;;;9.50;99.90;;;;;;4979658;28;20479;-53
2021/12/24 12:45:36;;;;;;;7.27;4.90;;;9.40;99.90;;;;;;4983939;28;20483;-48
2021/12/24 12:48:10;;;;;;;7.10;5.23;;;9.40;99.90;;;;;;4981565;28;20800;-47
2021/12/24 12:50:39;;;;;;;7.27;5.07;;;9.40;99.90;;;;;;4980233;28;20436;-48
2021/12/24 12:53:40;;;;;;;5.50;4.90;;;9.40;99.90;;;;;;4936019;28;20540;-47
2021/12/24 12:56:12;;;;;;;7.40;4.80;;;9.50;99.90;;;;;;4934729;28;20468;-53
2021/12/24 12:58:39;;;;;;;6.53;4.43;;;9.50;99.90;;;;;;4979857;28;20480;-51
2021/12/24 13:01:18;;;;;;;6.07;4.53;;;9.50;99.90;;;;;;4972159;28;20543;-51
2021/12/24 13:03:56;;;;;;;6.03;4.90;;;9.50;99.90;;;;;;4978151;28;20974;-47
2021/12/24 13:06:49;;;;;;;5.17;4.50;;;9.60;99.90;;;;;;4974707;28;20460;-55
2021/12/24 13:09:28;;;;;;;8.33;5.37;;;9.60;99.90;;;;;;4978623;28;20429;-52
2021/12/24 13:11:55;;;;;;;6.60;5.00;;;9.70;99.90;;;;;;4976261;28;20476;-51
2021/12/24 13:14:24;;;;;;;6.87;4.93;;;9.70;99.90;;;;;;4979126;28;20530;-53
2021/12/24 13:17:16;;;;;;;5.30;4.23;;;9.70;99.90;;;;;;4979206;28;20468;-50
2021/12/24 13:22:29;;;;;;;7.10;5.10;;;9.70;99.90;;;;;;4982460;28;20536;-50
2021/12/24 13:25:13;;;;;;;7.20;5.40;;;9.70;99.90;;;;;;4979044;28;20866;-52
2021/12/24 13:27:49;;;;;;;5.97;4.87;;;9.70;99.90;;;;;;4979375;28;21563;-53
2021/12/24 13:30:19;;;;;;;6.17;5.03;;;9.80;99.90;;;;;;4980187;28;20467;-50
2021/12/24 13:32:46;;;;;;;7.43;4.97;;;9.80;99.90;;;;;;4969480;28;20975;-50
2021/12/24 13:35:14;;;;;;;12.43;5.97;;;9.70;99.90;;;;;;4977202;28;20553;-51
2021/12/24 13:37:45;;;;;;;7.20;4.80;;;9.80;99.90;;;;;;4976609;28;20441;-51
2021/12/24 13:40:12;;;;;;;6.40;4.60;;;9.90;99.90;;;;;;4959159;28;20445;-52
2021/12/24 13:42:53;;;;;;;9.00;5.20;;;9.90;99.90;;;;;;4976464;28;21024;-51
2021/12/24 13:45:20;;;;;;;8.23;4.70;;;9.90;99.90;;;;;;4978838;28;20470;-49
2021/12/24 13:47:57;;;;;;;6.93;5.50;;;9.90;99.90;;;;;;4962295;28;20815;-50
2021/12/24 13:54:32;;;;;;;7.40;5.10;;;9.90;99.90;;;;;;4976996;28;21012;-49
2021/12/24 13:56:01;;;;;;;7.20;5.27;;;9.90;99.90;;;;;;4979688;28;20564;-49
2021/12/24 13:58:27;;;;;;;6.07;5.17;;;9.80;99.90;;;;;;4980939;28;20909;-52
2021/12/24 14:00:58;;;;;;;7.80;4.77;;;9.80;99.90;;;;;;4977083;28;20441;-48
2021/12/24 14:03:30;;;;;;;7.77;5.97;;;9.80;99.90;;;;;;4981695;28;20193;-49
2021/12/24 14:06:00;;;;;;;7.57;6.00;;;9.80;99.90;;;;;;4973549;28;20475;-55
2021/12/24 14:08:32;;;;;;;6.93;6.17;;;9.90;99.90;;;;;;4981040;28;20446;-52
2021/12/24 14:11:20;;;;;;;7.10;5.93;;;9.90;99.90;;;;;;4977058;28;20440;-50
2021/12/24 14:13:55;;;;;;;7.03;5.50;;;9.90;99.90;;;;;;4980578;28;20461;-49
2021/12/24 14:19:08;;;;;;;10.00;5.67;;;9.80;99.90;;;;;;4980272;28;20445;-50
2021/12/24 14:21:45;;;;;;;6.67;5.73;;;9.80;99.90;;;;;;4981472;28;20869;-54
2021/12/24 14:24:12;;;;;;;8.60;6.00;;;9.90;99.90;;;;;;4982070;28;20681;-54
2021/12/24 14:26:56;;;;;;;7.10;6.13;;;9.80;99.90;;;;;;4967208;28;20962;-53
2021/12/24 14:29:29;;;;;;;7.60;5.97;;;9.80;99.90;;;;;;4979467;28;22471;-48
2021/12/24 14:32:03;;;;;;;7.70;5.70;;;9.80;99.90;;;;;;4981579;28;20483;-51
2021/12/24 14:34:38;;;;;;;7.30;6.00;;;9.80;99.90;;;;;;4981836;28;20453;-48
2021/12/24 14:37:10;;;;;;;7.40;5.80;;;9.70;99.90;;;;;;4963825;28;20448;-51
2021/12/24 14:39:46;;;;;;;12.70;5.20;;;9.70;99.90;;;;;;4984412;28;20906;-51
2021/12/24 14:42:28;;;;;;;5.73;5.07;;;9.70;99.90;;;;;;4985262;28;20428;-52
2021/12/24 14:45:15;;;;;;;7.17;5.77;;;9.70;99.90;;;;;;4983671;28;20479;-50
2021/12/24 14:47:41;;;;;;;7.10;5.90;;;9.70;99.90;;;;;;4980059;28;20483;-50
2021/12/24 14:50:12;;;;;;;7.07;5.70;;;9.70;99.90;;;;;;4981771;28;20440;-54
2021/12/24 14:52:38;;;;;;;7.57;6.00;;;9.70;99.90;;;;;;4982019;28;20511;-53
2021/12/24 14:55:19;;;;;;;8.80;5.93;;;9.70;99.90;;;;;;4982056;28;20572;-50
2021/12/24 14:57:53;;;;;;;7.27;5.77;;;9.70;99.90;;;;;;4982961;28;20476;-49
2021/12/24 15:00:35;;;;;;;8.50;6.43;;;9.70;99.90;;;;;;4979868;28;20418;-53